createdAt,value
2016-12-04T00:00:40.638Z,41.165
2016-12-04T00:03:36.793Z,41.144
2016-12-04T00:06:32.909Z,41.168
2016-12-04T00:09:29.035Z,41.268
2016-12-04T00:12:25.200Z,41.123
2016-12-04T00:15:21.270Z,41.058
2016-12-04T00:18:17.382Z,40.960
2016-12-04T00:21:13.507Z,40.797
2016-12-04T00:24:09.654Z,39.858
2016-12-04T00:27:05.829Z,40.334
2016-12-04T00:30:02.040Z,40.282
2016-12-04T00:32:58.147Z,40.357
2016-12-04T00:35:54.208Z,38.656
2016-12-04T00:38:50.297Z,37.569
2016-12-04T00:41:46.420Z,39.583
2016-12-04T00:44:42.552Z,40.115
2016-12-04T00:47:38.628Z,40.186
2016-12-04T00:50:34.758Z,40.039
2016-12-04T00:53:30.896Z,40.147
2016-12-04T00:56:26.990Z,40.039
2016-12-04T00:59:23.092Z,39.951
2016-12-04T01:02:19.218Z,40.005
2016-12-04T01:05:15.347Z,40.115
2016-12-04T01:08:11.442Z,40.053
2016-12-04T01:11:07.588Z,37.585
2016-12-04T01:14:03.716Z,39.180
2016-12-04T01:16:59.952Z,39.664
2016-12-04T01:19:56.116Z,39.813
2016-12-04T01:22:52.237Z,39.888
2016-12-04T01:25:48.340Z,39.907
2016-12-04T01:28:44.483Z,37.558
2016-12-04T01:31:40.609Z,38.736
2016-12-04T01:34:36.676Z,39.190
2016-12-04T01:37:32.844Z,39.175
2016-12-04T01:40:28.908Z,36.588
2016-12-04T01:43:25.070Z,38.626
2016-12-04T01:46:21.158Z,38.924
2016-12-04T01:49:17.255Z,38.803
2016-12-04T01:52:13.421Z,37.666
2016-12-04T01:55:09.518Z,36.997
2016-12-04T01:58:05.659Z,36.940
2016-12-04T02:01:01.849Z,36.974
2016-12-04T02:03:57.956Z,37.075
2016-12-04T02:06:54.087Z,37.144
2016-12-04T02:09:50.166Z,37.225
2016-12-04T02:12:46.323Z,37.332
2016-12-04T02:15:42.489Z,37.458
2016-12-04T02:18:38.661Z,37.564
2016-12-04T02:21:34.706Z,37.620
2016-12-04T02:24:30.787Z,37.705
2016-12-04T02:27:26.935Z,37.728
2016-12-04T02:30:23.043Z,37.780
2016-12-04T02:33:19.203Z,37.783
2016-12-04T02:36:15.381Z,36.695
2016-12-04T02:39:11.463Z,36.293
2016-12-04T02:42:07.591Z,36.826
2016-12-04T02:45:03.605Z,37.050
2016-12-04T02:47:59.679Z,37.253
2016-12-04T02:50:55.804Z,37.342
2016-12-04T02:53:51.903Z,37.347
2016-12-04T02:56:48.075Z,37.393
2016-12-04T02:59:44.202Z,37.380
2016-12-04T03:02:40.332Z,37.390
2016-12-04T03:05:36.476Z,37.459
2016-12-04T03:08:32.621Z,37.495
2016-12-04T03:11:28.757Z,37.511
2016-12-04T03:14:24.906Z,37.486
2016-12-04T03:17:21.077Z,37.504
2016-12-04T03:20:17.210Z,37.494
2016-12-04T03:23:13.336Z,37.495
2016-12-04T03:26:09.507Z,37.497
2016-12-04T03:29:05.589Z,37.528
2016-12-04T03:32:01.718Z,37.547
2016-12-04T03:34:57.889Z,37.568
2016-12-04T03:37:53.979Z,37.643
2016-12-04T03:40:50.134Z,37.495
2016-12-04T03:43:46.221Z,37.652
2016-12-04T03:46:42.400Z,37.655
2016-12-04T03:49:38.566Z,37.684
2016-12-04T03:52:34.701Z,37.704
2016-12-04T03:55:30.824Z,37.671
2016-12-04T03:58:26.917Z,37.690
2016-12-04T04:01:22.970Z,37.701
2016-12-04T04:04:19.186Z,37.698
2016-12-04T04:07:15.409Z,37.696
2016-12-04T04:10:11.454Z,37.653
2016-12-04T04:13:07.607Z,37.662
2016-12-04T04:16:03.716Z,37.617
2016-12-04T04:18:59.813Z,37.585
2016-12-04T04:21:55.924Z,37.603
2016-12-04T04:24:52.122Z,37.561
2016-12-04T04:27:48.244Z,37.549
2016-12-04T04:30:44.377Z,37.560
2016-12-04T04:33:40.505Z,37.551
2016-12-04T04:36:36.596Z,37.574
2016-12-04T04:39:32.715Z,37.646
2016-12-04T04:42:28.868Z,37.791
2016-12-04T04:45:25.000Z,37.745
2016-12-04T04:48:21.125Z,37.769
2016-12-04T04:51:17.322Z,37.721
2016-12-04T04:54:13.453Z,37.846
2016-12-04T04:57:09.579Z,37.850
2016-12-04T05:00:05.677Z,37.864
2016-12-04T05:03:01.748Z,38.041
2016-12-04T05:05:57.734Z,38.259
2016-12-04T05:08:53.857Z,38.501
2016-12-04T05:11:49.887Z,38.783
2016-12-04T05:14:45.796Z,39.019
2016-12-04T05:17:41.802Z,39.267
2016-12-04T05:20:37.837Z,39.502
2016-12-04T05:23:33.936Z,39.666
2016-12-04T05:26:30.062Z,39.948
2016-12-04T05:29:26.190Z,40.092
2016-12-04T05:32:22.185Z,40.310
2016-12-04T05:35:18.234Z,40.465
2016-12-04T05:38:14.282Z,40.663
2016-12-04T05:41:10.329Z,40.775
2016-12-04T05:44:06.473Z,40.925
2016-12-04T05:47:02.549Z,41.086
2016-12-04T05:49:58.693Z,41.205
2016-12-04T05:52:54.812Z,41.333
2016-12-04T05:55:50.875Z,41.335
2016-12-04T05:58:46.899Z,41.605
2016-12-04T06:01:42.908Z,41.771
2016-12-04T06:04:39.058Z,41.793
2016-12-04T06:07:35.010Z,41.864
2016-12-04T06:10:31.112Z,41.976
2016-12-04T06:13:27.195Z,42.047
2016-12-04T06:16:23.313Z,42.087
2016-12-04T06:19:19.313Z,42.180
2016-12-04T06:22:15.302Z,42.178
2016-12-04T06:25:11.390Z,42.237
2016-12-04T06:28:07.402Z,42.318
2016-12-04T06:31:03.415Z,42.367
2016-12-04T06:33:59.460Z,42.416
2016-12-04T06:36:55.477Z,42.486
2016-12-04T06:39:51.559Z,42.538
2016-12-04T06:42:47.526Z,42.595
2016-12-04T06:45:43.578Z,42.686
2016-12-04T06:48:39.641Z,42.715
2016-12-04T06:51:35.744Z,42.773
2016-12-04T06:54:31.671Z,42.833
2016-12-04T06:57:27.799Z,42.879
2016-12-04T07:00:23.879Z,42.968
2016-12-04T07:03:20.012Z,42.986
2016-12-04T07:06:15.996Z,43.021
2016-12-04T07:09:12.016Z,43.080
2016-12-04T07:12:07.970Z,43.118
2016-12-04T07:15:04.018Z,43.176
2016-12-04T07:18:00.110Z,43.221
2016-12-04T07:20:56.211Z,43.298
2016-12-04T07:23:52.194Z,43.375
2016-12-04T07:26:48.316Z,43.441
2016-12-04T07:29:44.366Z,43.477
2016-12-04T07:32:40.554Z,43.514
2016-12-04T07:35:36.762Z,43.509
2016-12-04T07:38:32.679Z,43.483
2016-12-04T07:41:28.765Z,43.614
2016-12-04T07:44:24.834Z,43.579
2016-12-04T07:47:20.931Z,43.614
2016-12-04T07:50:16.982Z,43.628
2016-12-04T07:53:13.021Z,43.641
2016-12-04T07:56:09.126Z,43.686
2016-12-04T07:59:05.172Z,43.699
2016-12-04T08:02:01.230Z,43.734
2016-12-04T08:04:57.225Z,43.738
2016-12-04T08:07:53.278Z,43.773
2016-12-04T08:10:49.269Z,43.786
2016-12-04T08:13:45.359Z,43.789
2016-12-04T08:16:41.406Z,43.833
2016-12-04T08:19:37.416Z,43.856
2016-12-04T08:22:33.413Z,43.878
2016-12-04T08:25:29.469Z,43.891
2016-12-04T08:28:25.582Z,43.862
2016-12-04T08:31:21.540Z,43.894
2016-12-04T08:34:17.562Z,43.917
2016-12-04T08:37:13.630Z,43.969
2016-12-04T08:40:09.751Z,44.042
2016-12-04T08:43:05.716Z,44.095
2016-12-04T08:46:01.801Z,44.114
2016-12-04T08:48:57.900Z,44.122
2016-12-04T08:51:53.844Z,44.091
2016-12-04T08:54:49.969Z,44.093
2016-12-04T08:57:45.949Z,44.021
2016-12-04T09:00:42.004Z,44.010
2016-12-04T09:03:37.961Z,44.000
2016-12-04T09:06:33.973Z,44.000
2016-12-04T09:09:30.017Z,43.981
2016-12-04T09:12:26.007Z,43.954
2016-12-04T09:15:22.083Z,44.007
2016-12-04T09:18:18.130Z,43.997
2016-12-04T09:21:14.145Z,43.999
2016-12-04T09:24:10.234Z,43.948
2016-12-04T09:27:06.326Z,44.054
2016-12-04T09:30:02.284Z,44.033
2016-12-04T09:32:58.252Z,44.046
2016-12-04T09:35:54.256Z,44.017
2016-12-04T09:38:50.475Z,44.018
2016-12-04T09:41:46.582Z,44.000
2016-12-04T09:44:42.672Z,44.063
2016-12-04T09:47:38.632Z,44.036
2016-12-04T09:50:34.746Z,44.017
2016-12-04T09:53:30.792Z,44.061
2016-12-04T09:56:26.827Z,44.123
2016-12-04T09:59:22.809Z,44.154
2016-12-04T10:02:18.831Z,44.218
2016-12-04T10:05:14.914Z,44.237
2016-12-04T10:08:10.884Z,44.206
2016-12-04T10:11:06.924Z,44.257
2016-12-04T10:14:02.999Z,44.216
2016-12-04T10:16:58.969Z,44.247
2016-12-04T10:19:55.063Z,44.165
2016-12-04T10:22:51.113Z,44.165
2016-12-04T10:25:47.094Z,44.189
2016-12-04T10:28:43.172Z,44.149
2016-12-04T10:31:39.144Z,44.140
2016-12-04T10:34:35.214Z,44.100
2016-12-04T10:37:31.241Z,44.153
2016-12-04T10:40:27.218Z,44.092
2016-12-04T10:43:23.216Z,44.176
2016-12-04T10:46:19.163Z,44.166
2016-12-04T10:49:15.288Z,44.179
2016-12-04T10:52:11.319Z,44.178
2016-12-04T10:55:07.502Z,44.179
2016-12-04T10:58:03.535Z,44.202
2016-12-04T11:00:59.452Z,44.184
2016-12-04T11:03:55.452Z,44.229
2016-12-04T11:06:51.614Z,44.250
2016-12-04T11:09:47.641Z,44.210
2016-12-04T11:12:43.755Z,44.244
2016-12-04T11:15:39.637Z,44.295
2016-12-04T11:18:35.720Z,44.360
2016-12-04T11:21:31.755Z,44.402
2016-12-04T11:24:27.778Z,44.434
2016-12-04T11:27:23.800Z,44.455
2016-12-04T11:30:19.887Z,44.435
2016-12-04T11:33:15.957Z,44.396
2016-12-04T11:36:12.009Z,44.375
2016-12-04T11:39:08.002Z,44.407
2016-12-04T11:42:03.976Z,44.366
2016-12-04T11:45:00.006Z,44.356
2016-12-04T11:47:56.068Z,44.346
2016-12-04T11:50:52.041Z,44.369
2016-12-04T11:53:48.133Z,44.381
2016-12-04T11:56:44.188Z,44.401
2016-12-04T11:59:40.205Z,44.362
2016-12-04T12:02:36.241Z,44.364
2016-12-04T12:05:32.274Z,44.386
2016-12-04T12:08:28.316Z,44.398
2016-12-04T12:11:24.356Z,44.400
2016-12-04T12:14:20.367Z,44.422
2016-12-04T12:17:16.483Z,44.424
2016-12-04T12:20:12.566Z,44.404
2016-12-04T12:23:08.538Z,44.437
2016-12-04T12:26:04.530Z,44.479
2016-12-04T12:29:00.564Z,44.481
2016-12-04T12:31:56.612Z,44.512
2016-12-04T12:34:52.713Z,44.555
2016-12-04T12:37:48.811Z,44.496
2016-12-04T12:40:44.836Z,44.621
2016-12-04T12:43:40.898Z,44.653
2016-12-04T12:46:36.942Z,44.789
2016-12-04T12:49:32.937Z,44.974
2016-12-04T12:52:29.035Z,45.119
2016-12-04T12:55:25.023Z,45.192
2016-12-04T12:58:21.063Z,45.266
2016-12-04T13:01:17.038Z,45.338
2016-12-04T13:04:13.111Z,45.338
2016-12-04T13:07:09.091Z,45.372
2016-12-04T13:10:05.069Z,45.413
2016-12-04T13:13:01.172Z,45.443
2016-12-04T13:15:57.274Z,45.486
2016-12-04T13:18:53.296Z,45.402
2016-12-04T13:21:49.379Z,45.506
2016-12-04T13:24:45.425Z,45.517
2016-12-04T13:27:41.367Z,45.528
2016-12-04T13:30:37.416Z,45.581
2016-12-04T13:33:34.280Z,45.560
2016-12-04T13:36:29.460Z,45.582
2016-12-04T13:39:25.540Z,45.592
2016-12-04T13:42:21.486Z,45.613
2016-12-04T13:45:17.691Z,45.627
2016-12-04T13:48:13.733Z,45.627
2016-12-04T13:51:09.716Z,45.638
2016-12-04T13:54:05.786Z,45.638
2016-12-04T13:57:01.744Z,45.659
2016-12-04T13:59:57.876Z,45.661
2016-12-04T14:02:53.893Z,45.650
2016-12-04T14:05:49.943Z,45.681
2016-12-04T14:08:45.866Z,45.558
2016-12-04T14:11:41.816Z,45.682
2016-12-04T14:14:37.785Z,45.682
2016-12-04T14:17:33.766Z,45.703
2016-12-04T14:20:29.688Z,45.713
2016-12-04T14:23:25.678Z,45.788
2016-12-04T14:26:21.650Z,45.736
2016-12-04T14:29:17.673Z,45.819
2016-12-04T14:32:13.699Z,45.879
2016-12-04T14:35:09.685Z,45.869
2016-12-04T14:38:05.730Z,46.054
2016-12-04T14:41:01.775Z,45.949
2016-12-04T14:43:57.821Z,45.952
2016-12-04T14:46:53.899Z,45.703
2016-12-04T14:49:49.848Z,41.314
2016-12-04T14:52:45.731Z,38.077
2016-12-04T14:55:41.558Z,37.407
2016-12-04T14:58:37.676Z,38.627
2016-12-04T15:01:33.711Z,39.680
2016-12-04T15:04:29.684Z,40.085
2016-12-04T15:07:25.613Z,40.167
2016-12-04T15:10:21.678Z,40.370
2016-12-04T15:13:17.704Z,40.702
2016-12-04T15:16:13.766Z,40.693
2016-12-04T15:19:09.892Z,40.656
2016-12-04T15:22:06.061Z,40.569
2016-12-04T15:25:02.123Z,40.426
2016-12-04T15:27:58.246Z,39.433
2016-12-04T15:30:54.251Z,39.056
2016-12-04T15:33:50.342Z,39.026
2016-12-04T15:36:46.427Z,38.935
2016-12-04T15:39:42.579Z,38.864
2016-12-04T15:42:38.674Z,38.041
2016-12-04T15:45:34.801Z,37.180
2016-12-04T15:48:30.947Z,37.118
2016-12-04T15:51:26.973Z,37.045
2016-12-04T15:54:23.083Z,36.987
2016-12-04T15:57:19.291Z,36.774
2016-12-04T16:00:15.431Z,36.632
2016-12-04T16:03:11.533Z,36.726
2016-12-04T16:06:07.682Z,36.822
2016-12-04T16:09:03.780Z,34.359
2016-12-04T16:11:59.882Z,35.666
2016-12-04T16:14:55.940Z,36.001
2016-12-04T16:17:52.049Z,34.428
2016-12-04T16:20:48.152Z,33.879
2016-12-04T16:23:44.261Z,33.489
2016-12-04T16:26:40.362Z,44.693
2016-12-04T16:29:36.639Z,31.289
2016-12-04T16:32:32.775Z,29.609
2016-12-04T16:35:28.867Z,31.896
2016-12-04T16:38:24.881Z,32.887
2016-12-04T16:41:20.908Z,33.270
2016-12-04T16:44:16.949Z,33.754
2016-12-04T16:47:13.003Z,33.893
2016-12-04T16:50:09.233Z,33.947
2016-12-04T16:53:05.308Z,34.080
2016-12-04T16:56:01.327Z,34.105
2016-12-04T16:58:57.343Z,34.161
2016-12-04T17:01:53.476Z,34.219
2016-12-04T17:04:49.541Z,34.194
2016-12-04T17:07:45.673Z,34.122
2016-12-04T17:10:41.734Z,34.830
2016-12-04T17:13:37.839Z,35.196
2016-12-04T17:16:33.915Z,35.528
2016-12-04T17:19:29.813Z,35.829
2016-12-04T17:22:25.825Z,36.149
2016-12-04T17:25:21.879Z,36.437
2016-12-04T17:28:17.938Z,36.716
2016-12-04T17:31:13.957Z,36.970
2016-12-04T17:34:10.040Z,37.205
2016-12-04T17:37:06.074Z,37.424
2016-12-04T17:40:02.149Z,37.624
2016-12-04T17:42:58.233Z,37.812
2016-12-04T17:45:54.208Z,37.968
2016-12-04T17:48:50.309Z,38.156
2016-12-04T17:51:46.348Z,38.320
2016-12-04T17:54:42.307Z,38.452
2016-12-04T17:57:38.343Z,38.561
2016-12-04T18:00:34.398Z,38.711
2016-12-04T18:03:30.446Z,38.781
2016-12-04T18:06:26.448Z,38.818
2016-12-04T18:09:22.407Z,38.979
2016-12-04T18:12:18.516Z,39.120
2016-12-04T18:15:14.574Z,39.659
2016-12-04T18:18:10.627Z,40.572
2016-12-04T18:21:06.642Z,39.886
2016-12-04T18:24:02.750Z,39.505
2016-12-04T18:26:58.826Z,39.137
2016-12-04T18:29:54.936Z,38.251
2016-12-04T18:32:50.951Z,38.691
2016-12-04T18:35:47.045Z,38.508
2016-12-04T18:38:43.117Z,38.667
2016-12-04T18:41:39.229Z,38.606
2016-12-04T18:44:35.331Z,38.662
2016-12-04T18:47:31.497Z,39.155
2016-12-04T18:50:27.677Z,38.793
2016-12-04T18:53:23.819Z,38.716
2016-12-04T18:56:19.958Z,38.596
2016-12-04T18:59:16.140Z,38.666
2016-12-04T19:02:12.191Z,38.616
2016-12-04T19:05:08.240Z,38.537
2016-12-04T19:08:04.344Z,38.622
2016-12-04T19:11:00.446Z,38.630
2016-12-04T19:13:56.593Z,38.623
2016-12-04T19:16:52.727Z,38.450
2016-12-04T19:19:48.883Z,38.349
2016-12-04T19:22:44.997Z,38.371
2016-12-04T19:25:41.060Z,38.391
2016-12-04T19:28:37.089Z,38.428
2016-12-04T19:31:33.317Z,38.481
2016-12-04T19:34:29.402Z,38.446
2016-12-04T19:37:25.545Z,38.367
2016-12-04T19:40:21.612Z,38.351
2016-12-04T19:43:17.759Z,37.776
2016-12-04T19:46:13.864Z,37.971
2016-12-04T19:49:10.069Z,38.225
2016-12-04T19:52:06.202Z,38.276
2016-12-04T19:55:02.318Z,38.379
2016-12-04T19:57:58.417Z,38.278
2016-12-04T20:00:54.487Z,38.592
2016-12-04T20:03:50.580Z,38.197
2016-12-04T20:06:46.775Z,38.344
2016-12-04T20:09:42.906Z,35.126
2016-12-04T20:12:39.102Z,37.037
2016-12-04T20:29:28.185Z,38.010
2016-12-04T20:32:20.909Z,36.953
2016-12-04T20:35:14.614Z,22.833
2016-12-04T20:38:06.091Z,36.035
2016-12-04T20:41:00.305Z,54.042
2016-12-04T20:43:54.450Z,67.928
2016-12-04T20:46:48.653Z,78.100
2016-12-04T20:49:43.122Z,85.183
2016-12-04T20:52:37.692Z,90.578
2016-12-04T20:55:32.283Z,93.580
2016-12-04T20:58:26.957Z,96.266
2016-12-04T21:01:21.757Z,98.859
2016-12-04T21:04:16.448Z,99.503
2016-12-04T21:07:11.268Z,99.978
2016-12-04T21:10:06.149Z,100.000
2016-12-04T21:13:01.006Z,100.000
2016-12-04T21:15:55.825Z,100.000
2016-12-04T21:18:50.821Z,100.000
2016-12-04T21:21:45.672Z,100.000
2016-12-04T21:24:40.433Z,100.000
2016-12-04T21:27:35.256Z,100.000
2016-12-04T21:30:30.188Z,100.000
2016-12-04T21:33:25.025Z,100.000
2016-12-04T21:36:19.864Z,100.000
2016-12-04T21:39:14.619Z,100.000
2016-12-04T21:42:09.572Z,100.000
2016-12-04T21:45:04.266Z,100.000
2016-12-04T21:47:59.100Z,100.000
2016-12-04T21:50:53.912Z,100.000
2016-12-04T21:53:48.753Z,100.000
2016-12-04T21:56:43.602Z,100.000
2016-12-04T21:59:38.527Z,100.000
2016-12-04T22:02:33.361Z,100.000
2016-12-04T22:05:28.312Z,100.000
2016-12-04T22:08:23.073Z,100.000
2016-12-04T22:11:18.053Z,100.000
2016-12-04T22:14:12.811Z,100.000
2016-12-04T22:17:07.559Z,100.000
2016-12-04T22:20:02.380Z,100.000
2016-12-04T22:22:57.351Z,100.000
2016-12-04T22:25:52.163Z,100.000
2016-12-04T22:28:47.092Z,100.000
2016-12-04T22:31:41.832Z,100.000
2016-12-04T22:34:36.667Z,100.000
2016-12-04T22:37:31.502Z,100.000
2016-12-04T22:40:26.312Z,100.000
2016-12-04T22:43:21.068Z,100.000
2016-12-04T22:46:15.884Z,100.000
2016-12-04T22:49:10.731Z,100.000
2016-12-04T22:52:05.519Z,100.000
2016-12-04T22:55:00.388Z,100.000
2016-12-04T22:57:55.208Z,100.000
2016-12-04T23:00:50.004Z,100.000
2016-12-04T23:03:44.749Z,100.000
2016-12-04T23:06:39.558Z,100.000
2016-12-04T23:09:34.402Z,100.000
2016-12-04T23:12:29.260Z,100.000
2016-12-04T23:15:24.100Z,100.000
2016-12-04T23:18:18.882Z,100.000
2016-12-04T23:21:13.690Z,100.000
2016-12-04T23:24:08.521Z,100.000
2016-12-04T23:27:03.467Z,100.000
2016-12-04T23:29:58.422Z,100.000
2016-12-04T23:32:53.166Z,100.000
2016-12-04T23:35:48.171Z,100.000
2016-12-04T23:38:42.961Z,100.000
2016-12-04T23:41:37.742Z,100.000
2016-12-04T23:44:32.532Z,100.000
2016-12-04T23:47:27.502Z,100.000
2016-12-04T23:50:22.238Z,100.000
2016-12-04T23:53:17.069Z,100.000
2016-12-04T23:56:11.909Z,100.000
2016-12-04T23:59:06.630Z,100.000
